LFPO Airport Information

Runway Information
Runway 02 Length 7874 ft width 197 ft
Elevation 287 ft Threshold ft Heading 18
Runway 20 Length 7874 ft Width 197 ft
Elevation 287 ft Threshold ft Heading 198
Runway 06 Length 11975 ft width 148 ft
Elevation 283 ft Threshold 984 ft Heading 62
Runway 24 Length 11975 ft Width 148 ft
Elevation 284 ft Threshold ft Heading 242
Runway 07 Length 10892 ft width 148 ft
Elevation 277 ft Threshold ft Heading 74
Runway 25 Length 10892 ft Width 148 ft
Elevation 287 ft Threshold 1427 ft Heading 254
Airport Frequencies
Type APP Name APP Frequency 123.875 MHZ
Type ATIS Name ATIS Frequency 131.35 MHZ
Type DEP Name DEP Frequency 127.75 MHZ
Type GND Name GND Frequency 121.7 MHZ
Type PFLT Name PREFLIGHT Frequency 121.05 MHZ
Type TWR Name TWR Frequency 118.7 MHZ
Airport Navaids
Type VOR-DME Name Orly Frequency 111200 KHZ
Airport Weather Information & NOTAM
ADDS - METARS form results

(0905 UTC 27 June 2022)
Data provider http://aviationweather.gov/metar/data/
 
METAR text: LFPO 270900Z 30006KT 260V320 9999 FEW050 FEW053TCU BKN066 19/12 Q1018 NOSIG
Conditions at: LFPO (PARIS/ORLY , FR) observed 0900 UTC 27 June 2022
Temperature: 19.0°C (66°F)
Dewpoint: 12.0°C (54°F) [RH = 64%]
Pressure (altimeter): 30.06 inches Hg (1018.0 mb)
Winds: from the WNW (300 degrees) at 7 MPH (6 knots; 3.1 m/s)
Visibility: 6 or more miles (10+ km)
Ceiling: 6600 feet AGL
Clouds: few clouds at 5000 feet AGL
few clouds at 5300 feet AGL
broken clouds at 6600 feet AGL
Weather: no significant weather observed at this time

METAR text: LFPO 270830Z 29010KT 260V320 9999 FEW050CB SCT056 BKN076 18/12 Q1018 NOSIG
Conditions at: LFPO (PARIS/ORLY , FR) observed 0830 UTC 27 June 2022
Temperature: 18.0°C (64°F)
Dewpoint: 12.0°C (54°F) [RH = 68%]
Pressure (altimeter): 30.06 inches Hg (1018.0 mb)
Winds: from the WNW (290 degrees) at 12 MPH (10 knots; 5.1 m/s)
Visibility: 6 or more miles (10+ km)
Ceiling: 7600 feet AGL
Clouds: few clouds at 5000 feet AGL
scattered clouds at 5600 feet AGL
broken clouds at 7600 feet AGL
Weather: no significant weather observed at this time

Forecast for: LFPO (PARIS/ORLY , FR)
Text: TAF LFPO 270500Z 2706/2812 23005KT CAVOK
Forecast period: 0600 UTC 27 June 2022 to 1200 UTC 28 June 2022
Forecast type: FROM: standard forecast or significant change
Winds: from the SW (230 degrees) at 6 MPH (5 knots; 2.6 m/s)
Visibility: 6 or more miles (10+ km)
Ceiling: unknown
Clouds: missing
Weather: NSW  (no significant weather)
Text: PROB30
Forecast period: 0600 to 0900 UTC 27 June 2022
Forecast type: TEMPORARY: The following changes expected for less than half the time period
Visibility: missing
Ceiling: at least 12,000 feet AGL
Clouds: scattered clouds at 5000 feet AGL
Weather: -SHRA  (light rain showers)